createdAt,value
2022-08-17T00:01:28.962Z,59.86
2022-08-17T00:03:57.873Z,60.37
2022-08-17T00:06:29.043Z,59.08
2022-08-17T00:09:01.073Z,58.53
2022-08-17T00:11:34.492Z,59.42
2022-08-17T00:14:08.361Z,60.84
2022-08-17T00:16:55.283Z,60.82
2022-08-17T00:19:25.540Z,61.81
2022-08-17T00:22:29.916Z,60.88
2022-08-17T00:24:40.337Z,61.49
2022-08-17T00:27:06.666Z,61.04
2022-08-17T00:29:32.988Z,61.07
2022-08-17T00:32:01.578Z,60.14
2022-08-17T00:34:47.865Z,61.13
2022-08-17T00:37:14.202Z,62.01
2022-08-17T00:39:43.917Z,61.92
2022-08-17T00:42:18.787Z,62.83
2022-08-17T00:44:45.384Z,62.21
2022-08-17T00:47:11.839Z,62.41
2022-08-17T00:49:38.197Z,61.11
2022-08-17T00:52:12.334Z,61.19
2022-08-17T00:54:42.544Z,62.59
2022-08-17T00:57:19.946Z,62.45
2022-08-17T01:00:02.032Z,61.42
2022-08-17T01:02:34.324Z,61.77
2022-08-17T01:05:08.843Z,61.81
2022-08-17T01:07:35.369Z,63.10
2022-08-17T01:10:08.398Z,62.19
2022-08-17T01:12:54.834Z,63.18
2022-08-17T01:15:21.774Z,63.71
2022-08-17T01:17:48.175Z,65.13
2022-08-17T01:20:14.898Z,64.99
2022-08-17T01:22:41.235Z,64.86
2022-08-17T01:25:08.709Z,64.70
2022-08-17T01:27:36.877Z,63.94
2022-08-17T01:30:58.275Z,64.00
2022-08-17T01:32:55.790Z,65.29
2022-08-17T01:35:22.156Z,63.45
2022-08-17T01:37:48.477Z,62.69
2022-08-17T01:40:22.501Z,63.78
2022-08-17T01:42:55.205Z,62.98
2022-08-17T01:45:25.903Z,63.18
2022-08-17T01:47:53.517Z,64.22
2022-08-17T01:50:25.497Z,62.03
2022-08-17T01:52:56.464Z,62.16
2022-08-17T01:55:29.342Z,64.41
2022-08-17T01:57:55.745Z,65.11
2022-08-17T02:00:22.333Z,65.78
2022-08-17T02:02:48.766Z,65.67
2022-08-17T02:05:15.289Z,64.05
2022-08-17T02:07:59.872Z,64.33
2022-08-17T02:10:32.902Z,63.02
2022-08-17T02:13:03.384Z,64.66
2022-08-17T02:15:29.859Z,66.04
2022-08-17T02:17:56.160Z,65.47
2022-08-17T02:20:42.140Z,65.96
2022-08-17T02:23:10.815Z,65.32
2022-08-17T02:25:39.735Z,65.17
2022-08-17T02:28:06.282Z,66.02
2022-08-17T02:30:59.722Z,64.89
2022-08-17T02:33:18.987Z,64.29
2022-08-17T02:35:46.783Z,63.62
2022-08-17T02:38:13.287Z,64.45
2022-08-17T02:40:39.857Z,64.88
2022-08-17T02:43:08.164Z,64.66
2022-08-17T02:45:35.873Z,64.95
2022-08-17T02:48:03.560Z,65.63
2022-08-17T02:50:29.986Z,66.36
2022-08-17T02:53:01.899Z,65.97
2022-08-17T02:55:34.615Z,65.24
2022-08-17T02:58:01.337Z,64.15
2022-08-17T03:00:31.422Z,64.71
2022-08-17T03:02:57.793Z,65.77
2022-08-17T03:05:27.381Z,64.91
2022-08-17T03:07:54.157Z,63.58
2022-08-17T03:10:21.043Z,65.57
2022-08-17T03:12:47.989Z,64.44
2022-08-17T03:15:18.820Z,65.24
2022-08-17T03:17:45.210Z,66.78
2022-08-17T03:20:13.535Z,66.45
2022-08-17T03:22:42.480Z,65.51
2022-08-17T03:25:19.946Z,66.38
2022-08-17T03:27:49.014Z,65.83
2022-08-17T03:30:18.300Z,65.01
2022-08-17T03:32:49.944Z,65.69
2022-08-17T03:35:19.620Z,65.60
2022-08-17T03:37:45.943Z,65.42
2022-08-17T03:40:13.389Z,65.14
2022-08-17T03:42:40.674Z,65.25
2022-08-17T03:45:15.587Z,64.29
2022-08-17T03:47:42.098Z,65.34
2022-08-17T03:50:11.385Z,65.06
2022-08-17T03:52:40.798Z,64.47
2022-08-17T03:55:07.497Z,65.77
2022-08-17T03:57:33.798Z,65.90
2022-08-17T04:00:00.254Z,66.01
2022-08-17T04:02:29.975Z,64.85
2022-08-17T04:04:57.217Z,65.44
2022-08-17T04:07:26.282Z,65.37
2022-08-17T04:09:53.011Z,64.18
2022-08-17T04:12:22.412Z,63.14
2022-08-17T04:14:53.740Z,63.80
2022-08-17T04:17:24.155Z,66.81
2022-08-17T04:19:50.727Z,65.56
2022-08-17T04:22:33.070Z,65.25
2022-08-17T04:25:15.341Z,65.09
2022-08-17T04:27:41.756Z,65.17
2022-08-17T04:30:09.308Z,65.13
2022-08-17T04:33:03.874Z,64.98
2022-08-17T04:35:42.684Z,63.18
2022-08-17T04:38:11.582Z,65.78
2022-08-17T04:40:38.283Z,63.26
2022-08-17T04:43:08.048Z,62.55
2022-08-17T04:45:39.359Z,62.85
2022-08-17T04:48:05.957Z,63.47
2022-08-17T04:50:39.409Z,64.02
2022-08-17T04:53:05.664Z,63.72
2022-08-17T04:55:31.993Z,63.72
2022-08-17T04:57:58.332Z,63.51
2022-08-17T05:00:25.327Z,63.56
2022-08-17T05:02:54.592Z,62.80
2022-08-17T05:05:23.237Z,62.30
2022-08-17T05:07:55.105Z,62.86
2022-08-17T05:10:23.076Z,64.18
2022-08-17T05:13:20.010Z,62.50
2022-08-17T05:15:48.130Z,63.10
2022-08-17T05:18:16.795Z,63.58
2022-08-17T05:20:44.400Z,63.05
2022-08-17T05:23:15.181Z,63.11
2022-08-17T05:25:51.436Z,64.04
2022-08-17T05:28:20.835Z,64.01
2022-08-17T05:30:50.928Z,63.61
2022-08-17T05:33:21.073Z,62.09
2022-08-17T05:35:48.812Z,61.76
2022-08-17T05:38:17.489Z,60.75
2022-08-17T05:40:44.559Z,60.46
2022-08-17T05:43:20.597Z,61.04
2022-08-17T05:46:00.056Z,60.12
2022-08-17T05:48:36.783Z,60.09
2022-08-17T05:51:27.572Z,59.98
2022-08-17T05:54:21.973Z,60.08
2022-08-17T05:57:15.990Z,59.95
2022-08-17T06:00:01.558Z,60.24
2022-08-17T06:02:50.349Z,60.38
2022-08-17T06:05:35.173Z,58.68
2022-08-17T06:08:20.715Z,59.83
2022-08-17T06:11:15.977Z,58.04
2022-08-17T06:14:08.197Z,57.90
2022-08-17T06:16:39.204Z,60.14
2022-08-17T06:19:18.896Z,60.46
2022-08-17T06:21:50.970Z,57.70
2022-08-17T06:24:42.096Z,58.97
2022-08-17T06:27:33.780Z,57.94
2022-08-17T06:30:09.448Z,57.14
2022-08-17T06:32:39.069Z,57.24
2022-08-17T06:35:08.733Z,55.80
2022-08-17T06:37:53.944Z,58.39
2022-08-17T06:40:35.246Z,58.90
2022-08-17T06:43:13.335Z,57.76
2022-08-17T06:46:08.078Z,56.93
2022-08-17T06:48:43.456Z,56.27
2022-08-17T06:51:23.654Z,57.10
2022-08-17T06:54:02.513Z,57.34
2022-08-17T06:56:52.685Z,55.39
2022-08-17T06:59:25.510Z,54.16
2022-08-17T07:01:52.865Z,54.71
2022-08-17T07:04:25.062Z,56.74
2022-08-17T07:06:56.929Z,53.73
2022-08-17T07:09:36.986Z,52.02
2022-08-17T07:12:19.468Z,53.90
2022-08-17T07:14:52.768Z,54.33
2022-08-17T07:17:20.132Z,53.55
2022-08-17T07:19:49.538Z,55.41
2022-08-17T07:22:50.325Z,53.16
2022-08-17T07:25:21.538Z,51.16
2022-08-17T07:27:51.024Z,52.70
2022-08-17T07:30:25.400Z,51.44
2022-08-17T07:33:14.960Z,53.44
2022-08-17T07:35:44.320Z,52.07
2022-08-17T07:38:24.209Z,51.93
2022-08-17T07:40:55.314Z,51.82
2022-08-17T07:43:41.876Z,52.76
2022-08-17T07:46:15.025Z,51.43
2022-08-17T07:48:42.542Z,49.97
2022-08-17T07:51:20.254Z,50.61
2022-08-17T07:53:49.771Z,51.26
2022-08-17T07:56:34.734Z,48.32
2022-08-17T07:59:11.873Z,50.06
2022-08-17T08:01:41.898Z,47.42
2022-08-17T08:04:37.576Z,43.24
2022-08-17T08:07:27.199Z,45.81
2022-08-17T08:10:08.431Z,43.17
2022-08-17T08:12:41.602Z,40.97
2022-08-17T08:15:19.090Z,34.86
2022-08-17T08:17:59.551Z,36.10
2022-08-17T08:20:52.028Z,41.34
2022-08-17T08:23:31.869Z,41.22
2022-08-17T08:26:26.525Z,42.35
2022-08-17T08:28:59.361Z,43.44
2022-08-17T08:32:03.265Z,43.90
2022-08-17T08:35:02.315Z,43.97
2022-08-17T08:37:44.796Z,41.23
2022-08-17T08:40:38.835Z,45.18
2022-08-17T08:43:32.138Z,43.78
2022-08-17T08:46:13.351Z,44.38
2022-08-17T08:49:10.231Z,43.46
2022-08-17T08:51:59.133Z,42.09
2022-08-17T08:54:32.965Z,43.10
2022-08-17T08:57:25.707Z,43.46
2022-08-17T09:00:10.298Z,41.97
2022-08-17T09:03:01.195Z,40.80
2022-08-17T09:06:06.344Z,42.28
2022-08-17T09:08:59.361Z,44.26
2022-08-17T09:12:02.779Z,43.28
2022-08-17T09:14:47.101Z,43.45
2022-08-17T09:17:20.343Z,42.19
2022-08-17T09:19:46.561Z,44.65
2022-08-17T09:22:33.193Z,44.82
2022-08-17T09:25:23.125Z,43.66
2022-08-17T09:28:06.367Z,43.66
2022-08-17T09:30:44.198Z,43.10
2022-08-17T09:33:15.565Z,43.41
2022-08-17T09:35:47.560Z,42.67
2022-08-17T09:38:26.284Z,41.41
2022-08-17T09:41:05.388Z,41.36
2022-08-17T09:43:41.580Z,43.09
2022-08-17T09:46:15.539Z,42.38
2022-08-17T09:48:50.201Z,42.40
2022-08-17T09:51:26.014Z,42.66
2022-08-17T09:53:52.380Z,42.33
2022-08-17T09:56:35.307Z,41.49
2022-08-17T09:59:38.341Z,41.48
2022-08-17T10:02:59.968Z,41.26
2022-08-17T10:05:40.314Z,40.97
2022-08-17T10:08:26.589Z,41.66
2022-08-17T10:11:05.026Z,38.41
2022-08-17T10:13:52.800Z,40.35
2022-08-17T10:16:31.749Z,39.65
2022-08-17T10:19:15.812Z,40.60
2022-08-17T10:21:47.333Z,39.71
2022-08-17T10:24:33.781Z,39.97
2022-08-17T10:27:02.994Z,39.90
2022-08-17T10:29:49.686Z,39.04
2022-08-17T10:32:29.312Z,39.19
2022-08-17T10:35:17.548Z,38.96
2022-08-17T10:38:17.589Z,39.74
2022-08-17T10:40:55.500Z,38.99
2022-08-17T10:44:37.117Z,38.79
2022-08-17T10:47:03.161Z,38.54
2022-08-17T10:49:35.911Z,39.58
2022-08-17T10:52:26.845Z,37.94
2022-08-17T10:54:58.083Z,37.58
2022-08-17T10:57:31.136Z,37.20
2022-08-17T11:00:00.828Z,36.29
2022-08-17T11:02:43.375Z,35.23
2022-08-17T11:05:28.818Z,36.37
2022-08-17T11:08:03.414Z,35.82
2022-08-17T11:10:54.893Z,35.75
2022-08-17T11:14:06.855Z,35.01
2022-08-17T11:16:43.589Z,34.31
2022-08-17T11:19:47.583Z,37.31
2022-08-17T11:22:38.713Z,35.19
2022-08-17T11:25:17.907Z,33.56
2022-08-17T11:27:45.974Z,34.92
2022-08-17T11:30:49.522Z,35.08
2022-08-17T11:33:33.874Z,35.68
2022-08-17T11:36:26.389Z,35.96
2022-08-17T11:39:20.222Z,36.45
2022-08-17T11:41:52.989Z,37.53
2022-08-17T11:44:34.065Z,37.25
2022-08-17T11:47:31.303Z,35.54
2022-08-17T11:50:10.621Z,36.20
2022-08-17T11:52:46.030Z,38.17
2022-08-17T11:55:37.520Z,35.15
2022-08-17T11:58:33.979Z,33.70
2022-08-17T12:01:06.183Z,36.24
2022-08-17T12:03:32.578Z,35.32
2022-08-17T12:06:06.834Z,36.21
2022-08-17T12:08:39.383Z,37.69
2022-08-17T12:11:16.254Z,35.10
2022-08-17T12:14:03.215Z,38.70
2022-08-17T12:16:29.551Z,34.57
2022-08-17T12:19:01.538Z,34.62
2022-08-17T12:21:49.002Z,34.89
2022-08-17T12:24:29.187Z,34.56
2022-08-17T12:27:00.253Z,32.37
2022-08-17T12:29:35.448Z,33.87
2022-08-17T12:32:06.019Z,34.79
2022-08-17T12:34:40.060Z,34.35
2022-08-17T12:37:23.999Z,33.21
2022-08-17T12:40:00.635Z,34.33
2022-08-17T12:42:30.548Z,34.19
2022-08-17T12:44:57.595Z,36.70
2022-08-17T12:47:24.449Z,39.51
2022-08-17T12:50:07.118Z,34.58
2022-08-17T12:52:38.340Z,33.41
2022-08-17T12:55:21.661Z,34.14
2022-08-17T12:57:56.423Z,33.38
2022-08-17T13:00:27.264Z,34.71
2022-08-17T13:02:55.016Z,33.82
2022-08-17T13:05:34.976Z,33.47
2022-08-17T13:08:03.717Z,33.21
2022-08-17T13:10:33.620Z,33.10
2022-08-17T13:13:16.463Z,33.35
2022-08-17T13:15:52.776Z,33.62
2022-08-17T13:18:37.452Z,32.76
2022-08-17T13:21:04.330Z,31.71
2022-08-17T13:23:31.058Z,33.79
2022-08-17T13:26:05.171Z,33.92
2022-08-17T13:28:36.021Z,34.29
2022-08-17T13:31:27.798Z,34.08
2022-08-17T13:34:17.479Z,33.65
2022-08-17T13:36:46.868Z,33.01
2022-08-17T13:39:21.776Z,31.34
2022-08-17T13:41:50.261Z,32.91
2022-08-17T13:44:36.245Z,37.56
2022-08-17T13:47:05.397Z,37.27
2022-08-17T13:49:46.504Z,34.07
2022-08-17T13:52:44.543Z,33.04
2022-08-17T13:55:23.400Z,34.32
2022-08-17T13:58:04.205Z,32.69
2022-08-17T14:00:35.794Z,35.40
2022-08-17T14:03:04.440Z,34.62
2022-08-17T14:05:31.738Z,33.78
2022-08-17T14:08:02.695Z,34.56
2022-08-17T14:10:33.220Z,36.85
2022-08-17T14:12:59.887Z,35.15
2022-08-17T14:15:54.633Z,35.21
2022-08-17T14:18:12.857Z,33.66
2022-08-17T14:20:39.544Z,34.08
2022-08-17T14:23:05.920Z,35.92
2022-08-17T14:25:32.305Z,36.99
2022-08-17T14:27:59.026Z,38.97
2022-08-17T14:30:29.752Z,36.22
2022-08-17T14:32:57.799Z,34.64
2022-08-17T14:35:24.856Z,36.08
2022-08-17T14:37:51.975Z,35.45
2022-08-17T14:40:20.621Z,34.54
2022-08-17T14:42:50.203Z,34.23
2022-08-17T14:45:31.494Z,34.64
2022-08-17T14:48:00.403Z,35.74
2022-08-17T14:50:26.881Z,37.48
2022-08-17T14:52:53.305Z,42.69
2022-08-17T14:55:22.512Z,41.46
2022-08-17T14:57:48.902Z,40.24
2022-08-17T15:00:16.093Z,40.43
2022-08-17T15:02:56.863Z,41.06
2022-08-17T15:05:25.741Z,39.42
2022-08-17T15:07:52.860Z,40.69
2022-08-17T15:10:20.056Z,41.00
2022-08-17T15:12:46.370Z,42.18
2022-08-17T15:15:15.677Z,44.80
2022-08-17T15:17:44.485Z,47.49
2022-08-17T15:20:24.743Z,47.91
2022-08-17T15:22:51.393Z,50.22
2022-08-17T15:25:18.593Z,49.89
2022-08-17T15:27:45.078Z,49.95
2022-08-17T15:30:12.084Z,49.35
2022-08-17T15:32:40.218Z,48.02
2022-08-17T15:35:08.838Z,48.69
2022-08-17T15:37:35.221Z,48.02
2022-08-17T15:40:01.958Z,47.71
2022-08-17T15:42:28.469Z,49.46
2022-08-17T15:44:54.914Z,51.53
2022-08-17T15:47:22.056Z,49.75
2022-08-17T15:49:48.601Z,50.14
2022-08-17T15:52:25.042Z,49.86
2022-08-17T15:54:57.324Z,50.48
2022-08-17T15:57:24.633Z,51.32
2022-08-17T15:59:55.118Z,51.60
2022-08-17T16:03:45.668Z,50.40
2022-08-17T16:05:22.163Z,50.02
2022-08-17T16:07:51.962Z,50.75
2022-08-17T16:10:19.356Z,50.23
2022-08-17T16:12:47.982Z,49.63
2022-08-17T16:15:15.019Z,50.87
2022-08-17T16:17:41.843Z,52.56
2022-08-17T16:20:19.593Z,51.86
2022-08-17T16:22:48.531Z,49.81
2022-08-17T16:25:18.343Z,51.31
2022-08-17T16:27:45.832Z,51.70
2022-08-17T16:30:17.419Z,50.63
2022-08-17T16:32:45.046Z,50.08
2022-08-17T16:35:13.752Z,49.43
2022-08-17T16:37:40.113Z,50.01
2022-08-17T16:40:08.657Z,50.34
2022-08-17T16:42:37.516Z,53.11
2022-08-17T16:45:25.405Z,55.27
2022-08-17T16:47:54.672Z,54.00
2022-08-17T16:50:23.749Z,52.85
2022-08-17T16:52:50.631Z,50.67
2022-08-17T16:55:19.767Z,50.57
2022-08-17T16:57:49.955Z,51.46
2022-08-17T17:00:18.732Z,50.17
2022-08-17T17:02:47.854Z,50.41
2022-08-17T17:05:37.573Z,47.34
2022-08-17T17:08:15.861Z,46.96
2022-08-17T17:10:46.565Z,48.39
2022-08-17T17:13:31.705Z,47.17
2022-08-17T17:16:19.884Z,47.51
2022-08-17T17:19:07.463Z,47.80
2022-08-17T17:21:46.811Z,46.11
2022-08-17T17:24:21.726Z,46.87
2022-08-17T17:27:07.381Z,46.33
2022-08-17T17:30:10.468Z,46.85
2022-08-17T17:32:44.475Z,46.49
2022-08-17T17:35:17.403Z,46.34
2022-08-17T17:37:45.319Z,46.91
2022-08-17T17:40:40.039Z,47.22
2022-08-17T17:43:34.942Z,46.56
2022-08-17T17:46:27.637Z,47.05
2022-08-17T17:48:56.251Z,46.00
2022-08-17T17:52:03.667Z,47.14
2022-08-17T17:54:59.292Z,46.11
2022-08-17T17:57:47.137Z,45.93
2022-08-17T18:00:38.637Z,45.00
2022-08-17T18:03:25.389Z,46.31
2022-08-17T18:06:04.563Z,47.05
2022-08-17T18:08:46.973Z,48.30
2022-08-17T18:11:24.957Z,48.27
2022-08-17T18:14:29.993Z,48.94
2022-08-17T18:16:59.464Z,48.88
2022-08-17T18:19:27.912Z,49.45
2022-08-17T18:22:16.951Z,49.41
2022-08-17T18:24:47.029Z,47.83
2022-08-17T18:27:33.450Z,49.55
2022-08-17T18:30:21.038Z,49.71
2022-08-17T18:32:47.381Z,50.11
2022-08-17T18:35:13.680Z,50.47
2022-08-17T18:37:51.269Z,50.31
2022-08-17T18:40:17.898Z,50.17
2022-08-17T18:43:01.227Z,51.00
2022-08-17T18:45:32.883Z,51.18
2022-08-17T18:47:59.996Z,50.88
2022-08-17T18:50:36.019Z,50.88
2022-08-17T18:53:33.177Z,50.43
2022-08-17T18:56:17.682Z,51.77
2022-08-17T18:58:51.960Z,51.71
2022-08-17T19:01:21.015Z,51.24
2022-08-17T19:03:49.121Z,51.88
2022-08-17T19:06:30.984Z,51.36
2022-08-17T19:08:57.329Z,52.25
2022-08-17T19:11:28.436Z,52.43
2022-08-17T19:14:10.273Z,52.50
2022-08-17T19:16:51.508Z,52.98
2022-08-17T19:19:36.214Z,53.44
2022-08-17T19:22:29.282Z,53.73
2022-08-17T19:25:10.776Z,52.60
2022-08-17T19:27:49.213Z,54.42
2022-08-17T19:30:17.345Z,54.67
2022-08-17T19:32:43.717Z,53.83
2022-08-17T19:35:17.122Z,53.16
2022-08-17T19:37:49.872Z,54.16
2022-08-17T19:40:54.181Z,54.31
2022-08-17T19:43:41.916Z,55.48
2022-08-17T19:46:39.180Z,55.61
2022-08-17T19:49:20.397Z,54.76
2022-08-17T19:52:18.828Z,54.15
2022-08-17T19:55:04.480Z,53.21
2022-08-17T19:57:55.886Z,55.03
2022-08-17T20:00:22.736Z,55.17
2022-08-17T20:03:07.829Z,54.97
2022-08-17T20:06:11.438Z,55.57
2022-08-17T20:08:40.958Z,54.21
2022-08-17T20:11:14.918Z,55.75
2022-08-17T20:13:44.460Z,56.36
2022-08-17T20:16:11.966Z,56.97
2022-08-17T20:18:55.266Z,57.94
2022-08-17T20:21:28.660Z,57.64
2022-08-17T20:24:37.728Z,57.00
2022-08-17T20:27:20.106Z,56.75
2022-08-17T20:30:10.799Z,58.16
2022-08-17T20:32:52.271Z,58.06
2022-08-17T20:35:31.725Z,57.81
2022-08-17T20:38:03.913Z,58.39
2022-08-17T20:40:32.196Z,57.97
2022-08-17T20:42:59.701Z,58.87
2022-08-17T20:45:49.733Z,58.06
2022-08-17T20:48:36.742Z,59.28
2022-08-17T20:51:17.382Z,58.64
2022-08-17T20:53:47.873Z,58.13
2022-08-17T20:56:42.176Z,58.59
2022-08-17T20:59:21.157Z,58.50
2022-08-17T21:02:18.665Z,59.42
2022-08-17T21:04:59.382Z,57.46
2022-08-17T21:07:43.166Z,58.29
2022-08-17T21:10:25.547Z,58.05
2022-08-17T21:13:10.822Z,59.12
2022-08-17T21:15:55.143Z,59.51
2022-08-17T21:18:41.747Z,59.73
2022-08-17T21:21:28.304Z,59.06
2022-08-17T21:24:07.280Z,58.45
2022-08-17T21:27:11.061Z,59.96
2022-08-17T21:29:53.396Z,60.55
2022-08-17T21:32:27.714Z,60.54
2022-08-17T21:35:06.247Z,58.82
2022-08-17T21:38:01.858Z,60.12
2022-08-17T21:40:32.460Z,59.47
2022-08-17T21:43:19.802Z,59.40
2022-08-17T21:45:55.064Z,59.78
2022-08-17T21:48:23.744Z,60.08
2022-08-17T21:51:01.064Z,59.31
2022-08-17T21:53:51.040Z,60.46
2022-08-17T21:56:32.729Z,59.49
2022-08-17T21:59:15.819Z,61.27
2022-08-17T22:01:43.156Z,61.10
2022-08-17T22:04:09.648Z,59.82
2022-08-17T22:06:39.907Z,60.18
2022-08-17T22:09:09.576Z,62.78
2022-08-17T22:11:56.060Z,64.45
2022-08-17T22:14:53.444Z,63.96
2022-08-17T22:17:37.069Z,62.42
2022-08-17T22:20:32.729Z,62.26
2022-08-17T22:22:58.990Z,62.47
2022-08-17T22:25:27.851Z,62.15
2022-08-17T22:28:00.174Z,62.56
2022-08-17T22:30:43.200Z,62.94
2022-08-17T22:33:35.420Z,62.22
2022-08-17T22:36:11.397Z,62.73
2022-08-17T22:38:38.941Z,62.53
2022-08-17T22:41:46.300Z,64.82
2022-08-17T22:44:16.799Z,63.48
2022-08-17T22:46:57.647Z,62.71
2022-08-17T22:49:26.096Z,61.91
2022-08-17T22:52:01.273Z,61.87
2022-08-17T22:54:28.055Z,61.20
2022-08-17T22:56:59.787Z,62.06
2022-08-17T22:59:54.586Z,60.54
2022-08-17T23:02:34.067Z,61.59
2022-08-17T23:05:09.633Z,62.75
2022-08-17T23:07:36.690Z,62.26
2022-08-17T23:10:03.866Z,61.31
2022-08-17T23:12:31.110Z,62.90
2022-08-17T23:14:59.854Z,62.77
2022-08-17T23:17:28.428Z,62.55
2022-08-17T23:19:54.920Z,62.50
2022-08-17T23:22:21.423Z,62.93
2022-08-17T23:24:48.472Z,63.49
2022-08-17T23:27:14.973Z,63.05
2022-08-17T23:29:41.383Z,63.11
2022-08-17T23:32:10.467Z,62.50
2022-08-17T23:34:37.871Z,63.56
2022-08-17T23:37:04.634Z,62.89
2022-08-17T23:39:31.201Z,62.53
2022-08-17T23:41:58.881Z,62.02
2022-08-17T23:44:26.245Z,63.73
2022-08-17T23:46:53.608Z,63.98
2022-08-17T23:49:20.300Z,63.32
2022-08-17T23:51:47.846Z,62.45
2022-08-17T23:54:22.293Z,62.48
2022-08-17T23:56:48.662Z,62.55
2022-08-17T23:59:17.718Z,61.10
